createdAt,value
2019-04-27T00:02:18.200Z,25.08
2019-04-27T00:05:06.672Z,25.07
2019-04-27T00:07:51.466Z,25.07
2019-04-27T00:10:43.662Z,25.07
2019-04-27T00:13:12.988Z,25.06
2019-04-27T00:16:09.708Z,25.06
2019-04-27T00:18:59.953Z,25.05
2019-04-27T00:21:43.149Z,25.06
2019-04-27T00:24:13.420Z,25.06
2019-04-27T00:26:49.035Z,25.04
2019-04-27T00:29:26.014Z,25.06
2019-04-27T00:31:55.723Z,25.05
2019-04-27T00:34:31.353Z,25.04
2019-04-27T00:37:28.028Z,25.05
2019-04-27T00:40:07.118Z,25.03
2019-04-27T00:42:35.850Z,25.03
2019-04-27T00:45:13.506Z,25.03
2019-04-27T00:47:54.646Z,25.03
2019-04-27T00:50:19.581Z,25.03
2019-04-27T00:52:55.231Z,25.01
2019-04-27T00:55:30.128Z,25.03
2019-04-27T00:58:37.157Z,25.02
2019-04-27T01:01:14.936Z,25.02
2019-04-27T01:03:56.978Z,25.01
2019-04-27T01:06:25.713Z,25.01
2019-04-27T01:09:01.144Z,25.01
2019-04-27T01:11:29.771Z,25.01
2019-04-27T01:14:12.830Z,25.00
2019-04-27T01:16:41.474Z,25.01
2019-04-27T01:19:18.957Z,25.00
2019-04-27T01:21:47.304Z,25.00
2019-04-27T01:24:22.926Z,24.99
2019-04-27T01:27:08.778Z,24.99
2019-04-27T01:29:43.936Z,24.99
2019-04-27T01:32:14.484Z,24.98
2019-04-27T01:34:50.048Z,24.99
2019-04-27T01:37:19.590Z,24.98
2019-04-27T01:39:55.924Z,24.98
2019-04-27T01:42:24.488Z,24.97
2019-04-27T01:44:59.552Z,24.98
2019-04-27T01:47:28.954Z,24.98
2019-04-27T01:50:04.023Z,24.96
2019-04-27T01:52:32.597Z,24.97
2019-04-27T01:55:14.222Z,24.97
2019-04-27T01:57:49.204Z,24.96
2019-04-27T02:00:42.037Z,24.96
2019-04-27T02:03:12.327Z,24.97
2019-04-27T02:05:52.675Z,24.96
2019-04-27T02:08:28.687Z,24.96
2019-04-27T02:11:03.629Z,24.96
2019-04-27T02:13:41.443Z,24.94
2019-04-27T02:16:18.671Z,24.95
2019-04-27T02:18:48.827Z,24.94
2019-04-27T02:21:23.671Z,24.94
2019-04-27T02:23:52.252Z,24.95
2019-04-27T02:26:27.101Z,24.94
2019-04-27T02:29:20.622Z,24.95
2019-04-27T02:32:20.176Z,24.93
2019-04-27T02:35:00.354Z,24.94
2019-04-27T02:37:35.964Z,24.93
2019-04-27T02:40:14.136Z,24.93
2019-04-27T02:42:54.580Z,24.93
2019-04-27T02:45:22.210Z,24.93
2019-04-27T02:47:59.799Z,24.94
2019-04-27T02:50:29.313Z,24.93
2019-04-27T02:53:04.389Z,24.93
2019-04-27T02:55:39.773Z,24.92
2019-04-27T02:58:21.676Z,24.92
2019-04-27T03:00:50.326Z,24.92
2019-04-27T03:03:25.420Z,24.91
2019-04-27T03:05:53.955Z,24.92
2019-04-27T03:08:29.474Z,24.92
2019-04-27T03:11:04.119Z,24.92
2019-04-27T03:13:49.420Z,24.91
2019-04-27T03:16:44.404Z,24.91
2019-04-27T03:19:36.477Z,24.91
2019-04-27T03:22:24.058Z,24.90
2019-04-27T03:25:25.374Z,24.91
2019-04-27T03:27:55.468Z,24.89
2019-04-27T03:30:35.123Z,24.90
2019-04-27T03:33:03.076Z,24.89
2019-04-27T03:35:42.287Z,24.88
2019-04-27T03:38:10.589Z,24.89
2019-04-27T03:40:44.766Z,24.89
2019-04-27T03:43:20.351Z,24.89
2019-04-27T03:45:55.865Z,24.89
2019-04-27T03:48:24.402Z,24.89
2019-04-27T03:51:06.784Z,24.88
2019-04-27T03:53:57.196Z,24.88
2019-04-27T03:57:02.619Z,24.88
2019-04-27T04:00:00.019Z,24.88
2019-04-27T04:02:30.174Z,24.89
2019-04-27T04:04:59.885Z,24.88
2019-04-27T04:07:35.603Z,24.87
2019-04-27T04:10:19.497Z,24.89
2019-04-27T04:12:55.917Z,24.87
2019-04-27T04:15:40.571Z,24.88
2019-04-27T04:18:15.356Z,24.87
2019-04-27T04:20:51.197Z,24.89
2019-04-27T04:23:20.471Z,24.87
2019-04-27T04:25:56.493Z,24.87
2019-04-27T04:28:25.045Z,24.87
2019-04-27T04:30:53.600Z,24.87
2019-04-27T04:33:30.378Z,24.88
2019-04-27T04:35:59.841Z,24.86
2019-04-27T04:38:35.415Z,24.88
2019-04-27T04:41:13.215Z,24.88
2019-04-27T04:43:54.130Z,24.88
2019-04-27T04:46:45.550Z,24.88
2019-04-27T04:49:14.108Z,24.87
2019-04-27T04:51:50.370Z,24.87
2019-04-27T04:54:20.239Z,24.86
2019-04-27T04:57:01.854Z,24.86
2019-04-27T04:59:38.901Z,24.86
2019-04-27T05:02:13.272Z,24.87
2019-04-27T05:04:41.818Z,24.87
2019-04-27T05:07:19.281Z,24.86
2019-04-27T05:10:01.860Z,24.86
2019-04-27T05:12:30.687Z,24.85
2019-04-27T05:15:05.384Z,24.85
2019-04-27T05:17:40.214Z,24.86
2019-04-27T05:20:29.350Z,24.86
2019-04-27T05:23:04.131Z,24.87
2019-04-27T05:25:32.692Z,24.87
2019-04-27T05:28:09.726Z,24.87
2019-04-27T05:30:39.155Z,24.87
2019-04-27T05:33:13.956Z,24.87
2019-04-27T05:35:42.482Z,24.86
2019-04-27T05:38:19.124Z,24.87
2019-04-27T05:40:49.703Z,24.87
2019-04-27T05:43:30.182Z,24.87
2019-04-27T05:46:35.663Z,24.88
2019-04-27T05:49:10.536Z,24.87
2019-04-27T05:51:40.560Z,24.88
2019-04-27T05:54:15.511Z,24.89
2019-04-27T05:56:44.058Z,24.88
2019-04-27T05:59:25.847Z,24.88
2019-04-27T06:01:54.395Z,24.88
2019-04-27T06:04:29.855Z,24.89
2019-04-27T06:07:00.861Z,24.90
2019-04-27T06:09:42.199Z,24.89
2019-04-27T06:12:10.786Z,24.90
2019-04-27T06:14:45.975Z,24.90
2019-04-27T06:17:14.543Z,24.90
2019-04-27T06:19:50.129Z,24.91
2019-04-27T06:22:19.024Z,24.91
2019-04-27T06:24:54.608Z,24.92
2019-04-27T06:27:23.235Z,24.92
2019-04-27T06:29:59.360Z,24.93
2019-04-27T06:32:29.626Z,24.93
2019-04-27T06:35:05.407Z,24.94
2019-04-27T06:37:40.321Z,24.93
2019-04-27T06:40:15.206Z,24.92
2019-04-27T06:42:43.761Z,24.93
2019-04-27T06:45:19.708Z,24.93
2019-04-27T06:47:48.842Z,24.93
2019-04-27T06:50:25.567Z,24.92
2019-04-27T06:52:54.130Z,24.94
2019-04-27T06:55:29.233Z,24.94
2019-04-27T06:58:04.603Z,24.93
2019-04-27T07:00:46.259Z,24.95
2019-04-27T07:03:16.180Z,24.95
2019-04-27T07:05:53.046Z,24.94
2019-04-27T07:08:30.866Z,24.95
2019-04-27T07:11:11.174Z,24.94
2019-04-27T07:13:44.067Z,24.93
2019-04-27T07:16:19.728Z,24.93
2019-04-27T07:18:48.369Z,24.94
2019-04-27T07:21:24.947Z,24.95
2019-04-27T07:23:59.804Z,24.95
2019-04-27T07:26:35.388Z,24.95
2019-04-27T07:29:03.939Z,24.95
2019-04-27T07:31:40.024Z,24.95
2019-04-27T07:34:09.463Z,24.95
2019-04-27T07:36:44.967Z,24.97
2019-04-27T07:39:13.525Z,24.96
2019-04-27T07:41:48.980Z,24.96
2019-04-27T07:44:32.867Z,24.98
2019-04-27T07:47:45.248Z,24.98
2019-04-27T07:50:20.861Z,24.98
2019-04-27T07:52:49.496Z,24.98
2019-04-27T07:55:24.573Z,24.99
2019-04-27T07:57:53.175Z,24.99
2019-04-27T08:00:35.670Z,24.98
2019-04-27T08:03:04.266Z,24.99
2019-04-27T08:05:39.814Z,24.99
2019-04-27T08:08:10.054Z,24.99
2019-04-27T08:10:51.012Z,24.98
2019-04-27T08:13:20.360Z,25.00
2019-04-27T08:15:55.723Z,25.00
2019-04-27T08:18:24.332Z,25.00
2019-04-27T08:20:59.369Z,25.02
2019-04-27T08:23:29.469Z,25.02
2019-04-27T08:25:58.890Z,25.02
2019-04-27T08:28:56.103Z,25.02
2019-04-27T08:31:40.282Z,25.04
2019-04-27T08:34:29.532Z,25.03
2019-04-27T08:37:05.062Z,25.05
2019-04-27T08:39:33.676Z,25.06
2019-04-27T08:42:09.548Z,25.06
2019-04-27T08:44:39.746Z,25.06
2019-04-27T08:47:15.166Z,25.07
2019-04-27T08:49:43.731Z,25.07
2019-04-27T08:52:20.194Z,25.07
2019-04-27T08:54:51.105Z,25.07
2019-04-27T08:57:26.361Z,25.10
2019-04-27T09:00:00.993Z,25.12
2019-04-27T09:02:47.080Z,25.13
2019-04-27T09:05:13.540Z,25.13
2019-04-27T09:07:54.268Z,25.14
2019-04-27T09:10:40.255Z,25.18
2019-04-27T09:13:22.812Z,25.17
2019-04-27T09:15:56.232Z,25.17
2019-04-27T09:18:33.533Z,25.16
2019-04-27T09:21:03.020Z,25.15
2019-04-27T09:23:38.979Z,25.13
2019-04-27T09:26:14.502Z,25.13
2019-04-27T09:28:43.083Z,25.13
2019-04-27T09:31:19.600Z,25.00
2019-04-27T09:33:48.249Z,24.83
2019-04-27T09:36:16.889Z,24.59
2019-04-27T09:38:46.534Z,24.67
2019-04-27T09:41:16.955Z,24.71
2019-04-27T09:43:46.619Z,24.54
2019-04-27T09:46:15.799Z,24.49
2019-04-27T09:48:44.356Z,24.46
2019-04-27T09:51:13.309Z,24.53
2019-04-27T09:53:41.966Z,24.68
2019-04-27T09:56:10.597Z,24.67
2019-04-27T09:58:39.166Z,24.72
2019-04-27T10:01:07.759Z,24.84
2019-04-27T10:03:37.279Z,24.92
2019-04-27T10:06:06.046Z,25.00
2019-04-27T10:08:36.537Z,25.06
2019-04-27T10:11:05.977Z,25.11
2019-04-27T10:13:36.414Z,25.14
2019-04-27T10:16:05.290Z,25.16
2019-04-27T10:18:33.866Z,25.18
2019-04-27T10:21:02.477Z,25.21
2019-04-27T10:23:31.088Z,25.24
2019-04-27T10:25:59.648Z,25.26
2019-04-27T10:28:28.397Z,25.29
2019-04-27T10:30:56.994Z,25.32
2019-04-27T10:33:26.897Z,25.31
2019-04-27T10:35:56.660Z,25.39
2019-04-27T10:38:25.871Z,25.44
2019-04-27T10:40:54.709Z,25.49
2019-04-27T10:43:23.307Z,25.52
2019-04-27T10:45:51.854Z,25.58
2019-04-27T10:48:20.448Z,25.62
2019-04-27T10:50:49.056Z,25.68
2019-04-27T10:53:17.664Z,25.69
2019-04-27T10:55:46.530Z,25.72
2019-04-27T10:58:15.050Z,25.74
2019-04-27T11:00:48.821Z,25.76
2019-04-27T11:03:20.077Z,25.78
2019-04-27T11:06:02.253Z,25.79
2019-04-27T11:08:32.184Z,25.82
2019-04-27T11:11:00.786Z,25.82
2019-04-27T11:13:30.049Z,25.82
2019-04-27T11:15:58.586Z,25.82
2019-04-27T11:18:27.250Z,25.86
2019-04-27T11:20:56.768Z,25.88
2019-04-27T11:23:26.088Z,25.89
2019-04-27T11:25:54.862Z,25.92
2019-04-27T11:28:23.437Z,25.92
2019-04-27T11:30:52.159Z,25.94
2019-04-27T11:33:20.757Z,25.94
2019-04-27T11:36:11.371Z,25.96
2019-04-27T11:38:39.977Z,25.97
2019-04-27T11:41:08.566Z,25.94
2019-04-27T11:43:37.153Z,25.96
2019-04-27T11:46:06.218Z,26.02
2019-04-27T11:48:36.156Z,26.06
2019-04-27T11:51:04.807Z,26.09
2019-04-27T11:53:33.496Z,26.10
2019-04-27T11:56:02.385Z,26.15
2019-04-27T11:58:31.019Z,26.14
2019-04-27T12:00:59.615Z,26.18
2019-04-27T12:03:28.190Z,26.19
2019-04-27T12:06:00.068Z,26.19
2019-04-27T12:08:27.079Z,26.14
2019-04-27T12:10:55.828Z,26.13
2019-04-27T12:13:25.938Z,26.10
2019-04-27T12:15:54.600Z,26.14
2019-04-27T12:18:23.228Z,26.16
2019-04-27T12:20:51.832Z,26.19
2019-04-27T12:23:32.735Z,26.19
2019-04-27T12:25:51.018Z,26.19
2019-04-27T12:28:28.359Z,26.21
2019-04-27T12:31:25.834Z,26.19
2019-04-27T12:33:56.039Z,26.24
2019-04-27T12:36:25.817Z,26.18
2019-04-27T12:38:54.519Z,26.14
2019-04-27T12:41:23.041Z,26.11
2019-04-27T12:43:51.632Z,26.09
2019-04-27T12:46:20.192Z,26.08
2019-04-27T12:48:48.777Z,26.05
2019-04-27T12:51:17.447Z,26.03
2019-04-27T12:53:58.828Z,26.00
2019-04-27T12:56:37.257Z,26.02
2019-04-27T12:59:20.430Z,26.04
2019-04-27T13:01:49.076Z,26.03
2019-04-27T13:04:19.394Z,26.01
2019-04-27T13:06:48.269Z,26.01
2019-04-27T13:09:17.326Z,26.02
2019-04-27T13:11:46.593Z,26.04
2019-04-27T13:14:16.369Z,26.04
2019-04-27T13:16:45.727Z,26.03
2019-04-27T13:19:15.826Z,26.04
2019-04-27T13:21:44.453Z,26.02
2019-04-27T13:24:13.076Z,26.01
2019-04-27T13:26:41.630Z,26.01
2019-04-27T13:29:10.186Z,26.00
2019-04-27T13:31:38.786Z,26.00
2019-04-27T13:34:07.344Z,26.00
2019-04-27T13:36:36.802Z,25.99
2019-04-27T13:39:06.604Z,25.98
2019-04-27T13:41:35.915Z,25.99
2019-04-27T13:44:06.441Z,25.98
2019-04-27T13:46:55.882Z,25.99
2019-04-27T13:49:36.898Z,25.98
2019-04-27T13:52:23.201Z,25.97
2019-04-27T13:54:51.738Z,25.98
2019-04-27T13:57:20.343Z,25.97
2019-04-27T13:59:48.895Z,25.97
2019-04-27T14:02:19.213Z,25.99
2019-04-27T14:04:47.798Z,26.00
2019-04-27T14:07:17.735Z,25.98
2019-04-27T14:09:48.649Z,26.00
2019-04-27T14:12:21.261Z,26.00
2019-04-27T14:14:51.250Z,26.02
2019-04-27T14:17:19.880Z,26.03
2019-04-27T14:19:48.476Z,26.03
2019-04-27T14:22:18.232Z,26.02
2019-04-27T14:24:48.764Z,26.02
2019-04-27T14:27:18.436Z,26.03
2019-04-27T14:29:48.884Z,26.03
2019-04-27T14:32:18.776Z,26.04
2019-04-27T14:34:50.070Z,26.04
2019-04-27T14:37:18.630Z,26.04
2019-04-27T14:39:47.464Z,26.07
2019-04-27T14:42:16.151Z,26.06
2019-04-27T14:44:44.745Z,26.07
2019-04-27T14:47:13.398Z,26.07
2019-04-27T14:49:41.969Z,26.08
2019-04-27T14:52:10.587Z,26.08
2019-04-27T14:54:47.288Z,26.10
2019-04-27T14:57:09.500Z,26.14
2019-04-27T14:59:38.456Z,26.15
2019-04-27T15:02:08.699Z,26.15
2019-04-27T15:04:39.749Z,26.12
2019-04-27T15:07:08.470Z,26.11
2019-04-27T15:09:37.195Z,26.13
2019-04-27T15:12:05.815Z,26.14
2019-04-27T15:14:34.360Z,26.15
2019-04-27T15:17:04.675Z,26.16
2019-04-27T15:19:38.740Z,26.16
2019-04-27T15:22:12.680Z,26.15
2019-04-27T15:24:41.231Z,26.14
2019-04-27T15:27:11.243Z,26.15
2019-04-27T15:29:39.854Z,26.16
2019-04-27T15:32:13.041Z,26.18
2019-04-27T15:34:48.302Z,26.19
2019-04-27T15:37:41.799Z,26.21
2019-04-27T15:40:28.918Z,26.25
2019-04-27T15:43:09.248Z,26.24
2019-04-27T15:45:38.925Z,26.20
2019-04-27T15:48:08.420Z,26.18
2019-04-27T15:50:38.642Z,26.17
2019-04-27T15:53:12.343Z,26.17
2019-04-27T15:55:39.577Z,26.18
2019-04-27T15:58:09.742Z,26.16
2019-04-27T16:00:38.599Z,26.17
2019-04-27T16:03:09.879Z,26.16
2019-04-27T16:05:40.178Z,26.18
2019-04-27T16:08:15.274Z,26.23
2019-04-27T16:10:40.565Z,26.27
2019-04-27T16:13:14.767Z,26.28
2019-04-27T16:15:39.764Z,26.31
2019-04-27T16:18:08.854Z,26.30
2019-04-27T16:20:38.083Z,26.30
2019-04-27T16:23:08.761Z,26.30
2019-04-27T16:25:47.769Z,26.29
2019-04-27T16:28:09.628Z,26.29
2019-04-27T16:30:39.137Z,26.31
2019-04-27T16:33:08.681Z,26.31
2019-04-27T16:35:38.706Z,26.28
2019-04-27T16:38:38.802Z,26.26
2019-04-27T16:41:08.167Z,26.26
2019-04-27T16:43:38.529Z,26.25
2019-04-27T16:46:08.779Z,26.25
2019-04-27T16:48:39.042Z,26.23
2019-04-27T16:51:08.706Z,26.24
2019-04-27T16:53:41.007Z,26.23
2019-04-27T16:56:14.504Z,26.24
2019-04-27T16:58:39.532Z,26.21
2019-04-27T17:01:10.739Z,26.20
2019-04-27T17:03:41.413Z,26.21
2019-04-27T17:06:10.307Z,26.21
2019-04-27T17:08:39.985Z,26.20
2019-04-27T17:11:13.498Z,26.16
2019-04-27T17:13:44.306Z,26.12
2019-04-27T17:16:24.604Z,26.08
2019-04-27T17:19:04.607Z,26.05
2019-04-27T17:21:28.792Z,26.03
2019-04-27T17:24:02.835Z,26.01
2019-04-27T17:26:29.217Z,26.00
2019-04-27T17:29:03.760Z,25.98
2019-04-27T17:31:34.017Z,25.97
2019-04-27T17:34:02.715Z,25.96
2019-04-27T17:36:31.307Z,25.95
2019-04-27T17:38:59.873Z,25.93
2019-04-27T17:41:28.497Z,25.90
2019-04-27T17:43:58.906Z,25.88
2019-04-27T17:46:28.195Z,25.87
2019-04-27T17:48:59.995Z,25.87
2019-04-27T17:51:30.540Z,25.86
2019-04-27T17:53:58.666Z,25.84
2019-04-27T17:56:34.088Z,25.83
2019-04-27T17:58:58.614Z,25.79
2019-04-27T18:01:30.112Z,25.78
2019-04-27T18:04:00.155Z,25.76
2019-04-27T18:06:29.687Z,25.75
2019-04-27T18:09:00.834Z,25.73
2019-04-27T18:11:28.934Z,25.72
2019-04-27T18:14:00.478Z,25.70
2019-04-27T18:16:33.787Z,25.68
2019-04-27T18:19:11.517Z,25.67
2019-04-27T18:21:43.974Z,25.65
2019-04-27T18:24:18.538Z,25.64
2019-04-27T18:27:00.761Z,25.64
2019-04-27T18:29:27.664Z,25.62
2019-04-27T18:31:54.753Z,25.62
2019-04-27T18:34:23.472Z,25.59
2019-04-27T18:36:52.117Z,25.59
2019-04-27T18:39:20.944Z,25.59
2019-04-27T18:41:54.098Z,25.58
2019-04-27T18:44:23.942Z,25.56
2019-04-27T18:46:53.636Z,25.54
2019-04-27T18:49:34.411Z,25.54
2019-04-27T18:52:28.112Z,25.53
2019-04-27T18:54:56.821Z,25.52
2019-04-27T18:57:25.879Z,25.52
2019-04-27T18:59:54.464Z,25.51
2019-04-27T19:02:24.323Z,25.50
2019-04-27T19:04:54.993Z,25.50
2019-04-27T19:07:26.388Z,25.48
2019-04-27T19:09:56.725Z,25.48
2019-04-27T19:12:25.586Z,25.47
2019-04-27T19:14:54.223Z,25.46
2019-04-27T19:17:22.847Z,25.46
2019-04-27T19:19:51.553Z,25.46
2019-04-27T19:22:20.145Z,25.45
2019-04-27T19:24:48.798Z,25.44
2019-04-27T19:27:25.151Z,25.44
2019-04-27T19:29:58.783Z,25.44
2019-04-27T19:32:28.232Z,25.43
2019-04-27T19:34:56.834Z,25.41
2019-04-27T19:37:25.697Z,25.41
2019-04-27T19:39:54.480Z,25.40
2019-04-27T19:42:23.247Z,25.40
2019-04-27T19:44:51.895Z,25.38
2019-04-27T19:47:20.671Z,25.39
2019-04-27T19:49:49.394Z,25.38
2019-04-27T19:52:18.419Z,25.37
2019-04-27T19:54:47.078Z,25.37
2019-04-27T19:57:29.278Z,25.36
2019-04-27T19:59:51.249Z,25.36
2019-04-27T20:02:22.076Z,25.36
2019-04-27T20:04:57.581Z,25.35
2019-04-27T20:07:26.246Z,25.35
2019-04-27T20:09:59.321Z,25.35
2019-04-27T20:12:27.906Z,25.34
2019-04-27T20:14:57.494Z,25.34
2019-04-27T20:17:36.782Z,25.34
2019-04-27T20:20:05.911Z,25.34
2019-04-27T20:22:34.585Z,25.34
2019-04-27T20:25:03.299Z,25.33
2019-04-27T20:27:45.220Z,25.33
2019-04-27T20:30:03.221Z,25.34
2019-04-27T20:32:32.110Z,25.33
2019-04-27T20:35:01.456Z,25.33
2019-04-27T20:37:31.380Z,25.34
2019-04-27T20:40:01.723Z,25.33
2019-04-27T20:42:31.476Z,25.32
2019-04-27T20:45:01.908Z,25.33
2019-04-27T20:47:31.119Z,25.31
2019-04-27T20:49:59.830Z,25.33
2019-04-27T20:52:53.717Z,25.32
2019-04-27T20:55:22.987Z,25.32
2019-04-27T20:57:59.549Z,25.33
2019-04-27T21:00:22.994Z,25.32
2019-04-27T21:03:13.762Z,25.31
2019-04-27T21:06:07.348Z,25.31
2019-04-27T21:08:37.222Z,25.30
2019-04-27T21:11:05.991Z,25.32
2019-04-27T21:13:34.609Z,25.31
2019-04-27T21:16:03.255Z,25.31
2019-04-27T21:18:32.085Z,25.30
2019-04-27T21:21:01.292Z,25.30
2019-04-27T21:23:31.188Z,25.30
2019-04-27T21:26:01.926Z,25.30
2019-04-27T21:28:30.535Z,25.29
2019-04-27T21:30:59.140Z,25.29
2019-04-27T21:33:27.711Z,25.29
2019-04-27T21:35:56.438Z,25.29
2019-04-27T21:38:25.017Z,25.29
2019-04-27T21:40:53.680Z,25.28
2019-04-27T21:43:22.270Z,25.29
2019-04-27T21:45:51.181Z,25.29
2019-04-27T21:48:21.198Z,25.29
2019-04-27T21:50:51.646Z,25.28
2019-04-27T21:53:45.925Z,25.28
2019-04-27T21:56:15.371Z,25.28
2019-04-27T21:58:44.015Z,25.28
2019-04-27T22:01:21.625Z,25.27
2019-04-27T22:03:52.767Z,25.28
2019-04-27T22:06:22.333Z,25.27
2019-04-27T22:08:52.177Z,25.27
2019-04-27T22:11:22.255Z,25.27
2019-04-27T22:13:52.060Z,25.27
2019-04-27T22:16:21.269Z,25.25
2019-04-27T22:18:51.859Z,25.25
2019-04-27T22:21:21.632Z,25.24
2019-04-27T22:23:55.323Z,25.24
2019-04-27T22:26:23.916Z,25.23
2019-04-27T22:28:52.545Z,25.23
2019-04-27T22:31:21.334Z,25.23
2019-04-27T22:33:52.588Z,25.22
2019-04-27T22:36:21.183Z,25.22
2019-04-27T22:38:51.595Z,25.22
2019-04-27T22:41:31.404Z,25.21
2019-04-27T22:44:18.072Z,25.21
2019-04-27T22:46:47.820Z,25.21
2019-04-27T22:49:16.405Z,25.21
2019-04-27T22:51:45.060Z,25.20
2019-04-27T22:54:13.754Z,25.21
2019-04-27T22:56:43.342Z,25.19
2019-04-27T22:59:21.447Z,25.19
2019-04-27T23:02:12.089Z,25.18
2019-04-27T23:04:44.562Z,25.17
2019-04-27T23:07:13.544Z,25.17
2019-04-27T23:09:42.875Z,25.17
2019-04-27T23:12:12.363Z,25.16
2019-04-27T23:14:41.570Z,25.16
2019-04-27T23:17:24.140Z,25.15
2019-04-27T23:19:52.837Z,25.15
2019-04-27T23:22:21.501Z,25.15
2019-04-27T23:24:51.892Z,25.14
2019-04-27T23:27:21.630Z,25.13
2019-04-27T23:29:51.479Z,25.13
2019-04-27T23:32:31.640Z,25.12
2019-04-27T23:35:00.377Z,25.12
2019-04-27T23:37:29.128Z,25.12
2019-04-27T23:39:57.816Z,25.11
2019-04-27T23:42:26.412Z,25.11
2019-04-27T23:44:54.977Z,25.10
2019-04-27T23:47:23.649Z,25.09
2019-04-27T23:49:52.261Z,25.09
2019-04-27T23:52:25.945Z,25.09
2019-04-27T23:54:54.534Z,25.08
2019-04-27T23:57:23.175Z,25.08
2019-04-27T23:59:51.747Z,25.08
